createdAt,value
2018-03-03T00:02:06.837Z,1.73
2018-03-03T00:04:46.611Z,5.00
2018-03-03T00:07:26.172Z,1.70
2018-03-03T00:10:06.652Z,4.30
2018-03-03T00:12:44.402Z,2.60
2018-03-03T00:15:22.918Z,2.77
2018-03-03T00:18:03.480Z,6.27
2018-03-03T00:20:44.195Z,3.93
2018-03-03T00:23:22.700Z,2.40
2018-03-03T00:26:05.300Z,2.47
2018-03-03T00:28:45.909Z,4.20
2018-03-03T00:31:27.307Z,2.70
2018-03-03T00:34:07.345Z,2.55
2018-03-03T00:36:46.633Z,2.45
2018-03-03T00:39:25.642Z,2.10
2018-03-03T00:42:04.291Z,3.67
2018-03-03T00:44:42.679Z,4.10
2018-03-03T00:47:21.436Z,3.00
2018-03-03T00:50:05.281Z,2.10
2018-03-03T00:52:46.093Z,2.45
2018-03-03T00:55:24.743Z,2.28
2018-03-03T00:58:03.450Z,1.95
2018-03-03T01:00:45.071Z,2.30
2018-03-03T01:03:23.647Z,1.80
2018-03-03T01:06:02.380Z,2.15
2018-03-03T01:08:41.204Z,2.60
2018-03-03T01:11:19.816Z,2.90
2018-03-03T01:13:58.277Z,3.08
2018-03-03T01:16:37.460Z,4.45
2018-03-03T01:19:16.502Z,1.87
2018-03-03T01:21:56.473Z,2.65
2018-03-03T01:24:36.110Z,3.47
2018-03-03T01:27:14.833Z,2.78
2018-03-03T01:29:54.548Z,2.00
2018-03-03T01:32:35.427Z,1.70
2018-03-03T01:35:16.263Z,2.25
2018-03-03T01:37:55.205Z,2.17
2018-03-03T01:40:36.818Z,2.35
2018-03-03T01:43:19.062Z,4.28
2018-03-03T01:45:58.599Z,2.50
2018-03-03T01:48:41.174Z,2.25
2018-03-03T01:51:31.987Z,2.05
2018-03-03T01:56:52.372Z,2.10
2018-03-03T01:59:33.106Z,3.25
2018-03-03T02:02:12.907Z,2.28
2018-03-03T02:04:53.620Z,2.20
2018-03-03T02:07:35.173Z,3.40
2018-03-03T02:10:16.568Z,1.73
2018-03-03T02:12:56.161Z,1.65
2018-03-03T02:15:34.746Z,2.53
2018-03-03T02:18:14.210Z,2.72
2018-03-03T02:20:54.823Z,1.50
2018-03-03T02:23:34.813Z,2.05
2018-03-03T02:26:15.907Z,2.12
2018-03-03T02:28:55.513Z,5.05
2018-03-03T02:31:33.838Z,3.03
2018-03-03T02:34:12.362Z,4.10
2018-03-03T02:36:50.745Z,2.05
2018-03-03T02:39:33.428Z,3.40
2018-03-03T02:42:14.099Z,2.30
2018-03-03T02:44:54.630Z,3.97
2018-03-03T02:47:34.249Z,3.10
2018-03-03T02:50:15.722Z,2.33
2018-03-03T02:52:55.143Z,3.15
2018-03-03T02:55:36.547Z,1.98
2018-03-03T02:58:15.179Z,2.08
2018-03-03T03:00:52.551Z,2.05
2018-03-03T03:03:32.372Z,2.78
2018-03-03T03:06:10.973Z,2.80
2018-03-03T03:08:51.383Z,3.83
2018-03-03T03:11:33.171Z,2.15
2018-03-03T03:17:00.921Z,2.70
2018-03-03T03:19:43.764Z,4.12
2018-03-03T03:22:24.444Z,3.47
2018-03-03T03:25:04.935Z,6.93
2018-03-03T03:27:43.585Z,4.32
2018-03-03T03:30:26.913Z,4.25
2018-03-03T03:33:06.596Z,3.55
2018-03-03T03:35:45.107Z,3.62
2018-03-03T03:38:23.653Z,6.45
2018-03-03T03:41:03.369Z,24.37
2018-03-03T03:43:43.903Z,25.77
2018-03-03T03:46:22.508Z,26.20
2018-03-03T03:49:02.263Z,22.95
2018-03-03T03:51:41.177Z,36.03
2018-03-03T03:54:19.766Z,33.97
2018-03-03T03:56:58.213Z,34.50
2018-03-03T03:59:37.856Z,23.92
2018-03-03T04:02:19.412Z,30.58
2018-03-03T04:05:02.004Z,13.30
2018-03-03T04:07:40.491Z,16.20
2018-03-03T04:10:20.105Z,15.05
2018-03-03T04:13:00.834Z,17.27
2018-03-03T04:15:39.509Z,18.15
2018-03-03T04:18:18.887Z,16.50
2018-03-03T04:20:57.548Z,11.10
2018-03-03T04:23:38.118Z,16.17
2018-03-03T04:28:58.642Z,5.93
2018-03-03T04:31:40.154Z,7.57
2018-03-03T04:34:18.963Z,4.12
2018-03-03T04:36:57.795Z,5.10
2018-03-03T04:39:36.587Z,4.35
2018-03-03T04:42:15.308Z,6.62
2018-03-03T04:44:54.794Z,5.78
2018-03-03T04:47:35.377Z,3.10
2018-03-03T04:50:16.977Z,4.75
2018-03-03T04:52:57.881Z,6.05
2018-03-03T04:55:36.218Z,4.85
2018-03-03T04:58:15.945Z,11.90
2018-03-03T05:00:55.984Z,3.87
2018-03-03T05:03:43.837Z,4.97
2018-03-03T05:09:38.224Z,2.45
2018-03-03T05:12:21.782Z,3.00
2018-03-03T05:15:15.357Z,5.57
2018-03-03T05:18:12.109Z,5.55
2018-03-03T05:21:09.117Z,4.05
2018-03-03T05:23:54.395Z,3.75
2018-03-03T05:26:38.164Z,4.12
2018-03-03T05:29:21.697Z,5.25
2018-03-03T05:32:07.067Z,4.40
2018-03-03T05:34:51.525Z,3.67
2018-03-03T05:37:51.666Z,5.60
2018-03-03T05:40:46.809Z,7.82
2018-03-03T05:43:32.758Z,6.35
2018-03-03T05:46:28.804Z,4.97
2018-03-03T05:49:13.934Z,7.45
2018-03-03T05:52:00.579Z,7.70
2018-03-03T05:54:46.322Z,9.38
2018-03-03T05:57:31.932Z,12.77
2018-03-03T06:00:26.005Z,15.02
2018-03-03T06:03:10.268Z,11.95
2018-03-03T06:05:56.735Z,14.50
2018-03-03T06:08:53.822Z,15.45
2018-03-03T06:11:32.728Z,20.42
2018-03-03T06:14:13.068Z,16.77
2018-03-03T06:16:51.450Z,4.75
2018-03-03T06:19:31.819Z,5.53
2018-03-03T06:22:10.500Z,6.62
2018-03-03T06:24:50.918Z,4.75
2018-03-03T06:27:30.513Z,3.58
2018-03-03T06:30:09.859Z,8.15
2018-03-03T06:32:48.501Z,5.40
2018-03-03T06:35:28.063Z,10.35
2018-03-03T06:38:07.563Z,6.00
2018-03-03T06:40:49.015Z,5.65
2018-03-03T06:43:28.556Z,6.97
2018-03-03T06:46:09.171Z,7.20
2018-03-03T06:48:47.523Z,6.35
2018-03-03T06:51:29.994Z,6.82
2018-03-03T06:54:08.360Z,3.62
2018-03-03T06:56:48.980Z,13.95
2018-03-03T06:59:30.420Z,14.73
2018-03-03T07:02:09.929Z,9.20
2018-03-03T07:04:49.248Z,10.10
2018-03-03T07:07:29.756Z,6.43
2018-03-03T07:10:08.147Z,4.85
2018-03-03T07:12:46.788Z,4.85
2018-03-03T07:15:26.137Z,4.10
2018-03-03T07:18:07.873Z,3.20
2018-03-03T07:20:48.476Z,4.80
2018-03-03T07:23:27.791Z,5.68
2018-03-03T07:26:09.329Z,3.33
2018-03-03T07:28:51.837Z,4.07
2018-03-03T07:31:31.275Z,4.10
2018-03-03T07:34:10.620Z,4.47
2018-03-03T07:36:50.160Z,3.45
2018-03-03T07:39:28.766Z,3.05
2018-03-03T07:42:11.827Z,2.17
2018-03-03T07:44:51.593Z,2.62
2018-03-03T07:47:30.104Z,3.37
2018-03-03T07:50:09.858Z,3.30
2018-03-03T07:52:48.481Z,5.57
2018-03-03T07:55:28.731Z,7.30
2018-03-03T07:58:12.342Z,3.28
2018-03-03T08:00:51.244Z,3.33
2018-03-03T08:03:29.801Z,5.47
2018-03-03T08:06:13.267Z,3.62
2018-03-03T08:08:54.600Z,3.65
2018-03-03T08:11:37.092Z,2.92
2018-03-03T08:14:19.789Z,2.80
2018-03-03T08:16:58.096Z,3.12
2018-03-03T08:19:39.543Z,3.65
2018-03-03T08:22:18.975Z,2.78
2018-03-03T08:24:57.643Z,3.87
2018-03-03T08:27:37.125Z,4.95
2018-03-03T08:30:15.572Z,11.15
2018-03-03T08:32:54.076Z,11.32
2018-03-03T08:35:34.714Z,16.23
2018-03-03T08:38:13.944Z,19.48
2018-03-03T08:40:52.320Z,14.75
2018-03-03T08:43:34.750Z,14.05
2018-03-03T08:46:14.135Z,15.20
2018-03-03T08:51:35.030Z,13.20
2018-03-03T08:54:14.655Z,8.10
2018-03-03T08:56:53.037Z,7.07
2018-03-03T08:59:32.567Z,7.50
2018-03-03T09:02:18.152Z,5.60
2018-03-03T09:04:56.362Z,4.18
2018-03-03T09:07:36.756Z,3.58
2018-03-03T09:10:15.178Z,5.25
2018-03-03T09:12:55.592Z,4.35
2018-03-03T09:15:36.163Z,4.95
2018-03-03T09:18:13.628Z,3.08
2018-03-03T09:20:52.165Z,4.00
2018-03-03T09:23:33.639Z,3.70
2018-03-03T09:26:12.065Z,4.87
2018-03-03T09:28:50.608Z,6.40
2018-03-03T09:31:29.100Z,6.55
2018-03-03T09:34:07.470Z,6.55
2018-03-03T09:36:50.970Z,7.40
2018-03-03T09:39:31.435Z,6.87
2018-03-03T09:42:10.830Z,7.15
2018-03-03T09:44:50.382Z,7.12
2018-03-03T09:47:31.155Z,7.95
2018-03-03T09:50:11.587Z,5.97
2018-03-03T09:52:50.173Z,6.10
2018-03-03T09:55:32.723Z,7.82
2018-03-03T09:58:12.123Z,9.13
2018-03-03T10:00:51.506Z,12.48
2018-03-03T10:03:29.940Z,7.87
2018-03-03T10:06:09.492Z,7.30
2018-03-03T10:08:49.015Z,11.15
2018-03-03T10:11:28.570Z,7.43
2018-03-03T10:16:52.959Z,9.05
2018-03-03T10:19:34.066Z,8.60
2018-03-03T10:22:12.617Z,8.77
2018-03-03T10:24:53.262Z,8.35
2018-03-03T10:27:32.717Z,8.77
2018-03-03T10:30:13.184Z,9.45
2018-03-03T10:32:54.640Z,8.30
2018-03-03T10:35:33.069Z,9.52
2018-03-03T10:38:12.528Z,9.38
2018-03-03T10:40:49.983Z,8.70
2018-03-03T10:43:34.590Z,10.20
2018-03-03T10:46:18.165Z,8.07
2018-03-03T10:48:58.590Z,8.80
2018-03-03T10:51:37.272Z,10.43
2018-03-03T10:54:19.582Z,7.87
2018-03-03T10:57:00.330Z,13.10
2018-03-03T10:59:38.918Z,10.15
2018-03-03T11:02:17.563Z,11.18
2018-03-03T11:04:56.044Z,12.93
2018-03-03T11:07:34.573Z,9.57
2018-03-03T11:10:13.126Z,9.77
2018-03-03T11:12:58.538Z,12.63
2018-03-03T11:15:41.057Z,18.42
2018-03-03T11:18:19.731Z,11.85
2018-03-03T11:20:59.214Z,10.75
2018-03-03T11:23:37.903Z,12.95
2018-03-03T11:26:18.791Z,9.93
2018-03-03T11:28:58.058Z,8.80
2018-03-03T11:31:37.600Z,11.50
2018-03-03T11:34:18.613Z,13.62
2018-03-03T11:36:56.691Z,12.18
2018-03-03T11:39:35.762Z,11.55
2018-03-03T11:42:13.857Z,11.27
2018-03-03T11:44:54.311Z,12.52
2018-03-03T11:47:32.645Z,15.30
2018-03-03T11:50:10.903Z,12.15
2018-03-03T11:52:49.521Z,8.98
2018-03-03T11:55:26.864Z,11.18
2018-03-03T11:58:06.377Z,11.00
2018-03-03T12:00:47.862Z,10.73
2018-03-03T12:03:27.215Z,10.57
2018-03-03T12:06:05.642Z,9.35
2018-03-03T12:08:44.229Z,10.90
2018-03-03T12:11:24.865Z,8.90
2018-03-03T12:14:05.241Z,11.98
2018-03-03T12:16:43.579Z,8.95
2018-03-03T12:19:22.019Z,9.65
2018-03-03T12:22:01.637Z,9.68
2018-03-03T12:24:41.164Z,12.02
2018-03-03T12:27:20.600Z,7.28
2018-03-03T12:29:59.350Z,8.55
2018-03-03T12:32:39.003Z,8.55
2018-03-03T12:35:18.442Z,7.22
2018-03-03T12:37:57.003Z,6.22
2018-03-03T12:40:36.371Z,7.05
2018-03-03T12:43:17.808Z,6.65
2018-03-03T12:45:56.202Z,7.07
2018-03-03T12:48:35.783Z,4.95
2018-03-03T12:51:15.168Z,5.70
2018-03-03T12:53:53.515Z,4.72
2018-03-03T12:56:34.952Z,4.43
2018-03-03T12:59:14.408Z,8.02
2018-03-03T13:01:54.241Z,6.80
2018-03-03T13:04:34.900Z,6.75
2018-03-03T13:07:14.432Z,6.40
2018-03-03T13:09:52.753Z,9.77
2018-03-03T13:12:31.371Z,9.18
2018-03-03T13:15:09.848Z,10.40
2018-03-03T13:17:49.231Z,9.43
2018-03-03T13:20:27.870Z,9.23
2018-03-03T13:23:06.358Z,5.05
2018-03-03T13:25:44.798Z,3.75
2018-03-03T13:28:23.427Z,5.15
2018-03-03T13:31:01.912Z,3.83
2018-03-03T13:33:40.358Z,3.33
2018-03-03T13:36:19.981Z,3.10
2018-03-03T13:38:58.615Z,6.00
2018-03-03T13:41:39.013Z,3.25
2018-03-03T13:44:17.329Z,4.65
2018-03-03T13:46:56.779Z,3.47
2018-03-03T13:49:35.158Z,4.55
2018-03-03T13:52:14.669Z,5.00
2018-03-03T13:54:54.033Z,5.00
2018-03-03T13:57:33.429Z,3.92
2018-03-03T14:00:18.953Z,3.20
2018-03-03T14:02:58.643Z,4.95
2018-03-03T14:05:38.008Z,3.10
2018-03-03T14:08:16.344Z,3.05
2018-03-03T14:10:54.705Z,4.07
2018-03-03T14:13:35.077Z,3.80
2018-03-03T14:16:13.649Z,3.08
2018-03-03T14:18:53.119Z,3.35
2018-03-03T14:21:32.831Z,4.12
2018-03-03T14:24:11.237Z,3.33
2018-03-03T14:26:49.901Z,3.25
2018-03-03T14:29:28.350Z,3.72
2018-03-03T14:32:06.746Z,4.72
2018-03-03T14:34:46.181Z,5.60
2018-03-03T14:37:28.621Z,6.90
2018-03-03T14:40:08.340Z,8.00
2018-03-03T14:42:46.755Z,14.38
2018-03-03T14:45:25.300Z,4.30
2018-03-03T14:48:04.737Z,4.40
2018-03-03T14:50:44.379Z,5.28
2018-03-03T14:53:22.683Z,7.72
2018-03-03T14:56:02.112Z,3.90
2018-03-03T14:58:41.686Z,4.15
2018-03-03T15:01:21.116Z,3.40
2018-03-03T15:03:59.827Z,3.08
2018-03-03T15:06:38.387Z,4.30
2018-03-03T15:09:19.939Z,6.68
2018-03-03T15:11:59.384Z,6.82
2018-03-03T15:14:38.785Z,7.22
2018-03-03T15:17:17.308Z,4.82
2018-03-03T15:19:55.652Z,5.45
2018-03-03T15:22:34.052Z,5.53
2018-03-03T15:25:13.603Z,3.47
2018-03-03T15:27:52.079Z,5.05
2018-03-03T15:30:30.690Z,3.97
2018-03-03T15:33:10.173Z,5.65
2018-03-03T15:35:48.740Z,4.15
2018-03-03T15:38:29.072Z,4.75
2018-03-03T15:41:09.500Z,5.97
2018-03-03T15:43:49.841Z,5.70
2018-03-03T15:46:29.365Z,5.03
2018-03-03T15:49:08.902Z,3.95
2018-03-03T15:51:46.324Z,5.85
2018-03-03T15:54:25.844Z,5.35
2018-03-03T15:57:05.295Z,5.28
2018-03-03T15:59:43.808Z,4.57
2018-03-03T16:02:22.263Z,8.15
2018-03-03T16:05:02.162Z,8.25
2018-03-03T16:07:41.419Z,7.40
2018-03-03T16:10:19.699Z,9.55
2018-03-03T16:13:00.116Z,8.55
2018-03-03T16:15:39.758Z,10.20
2018-03-03T16:18:22.280Z,12.02
2018-03-03T16:21:01.667Z,8.48
2018-03-03T16:23:40.050Z,9.10
2018-03-03T16:26:18.461Z,9.77
2018-03-03T16:28:57.188Z,6.55
2018-03-03T16:31:35.590Z,7.50
2018-03-03T16:34:14.754Z,7.62
2018-03-03T16:36:53.363Z,4.75
2018-03-03T16:39:31.015Z,4.70
2018-03-03T16:42:09.231Z,4.43
2018-03-03T16:44:48.683Z,4.03
2018-03-03T16:47:27.219Z,4.55
2018-03-03T16:50:05.935Z,4.85
2018-03-03T16:52:44.443Z,8.07
2018-03-03T16:55:22.949Z,5.60
2018-03-03T16:58:01.544Z,5.90
2018-03-03T17:00:39.187Z,5.30
2018-03-03T17:03:16.623Z,5.85
2018-03-03T17:05:57.986Z,8.98
2018-03-03T17:08:37.326Z,7.00
2018-03-03T17:11:16.770Z,4.37
2018-03-03T17:13:55.046Z,5.45
2018-03-03T17:16:34.774Z,6.07
2018-03-03T17:19:13.535Z,5.72
2018-03-03T17:21:51.049Z,5.75
2018-03-03T17:24:29.640Z,4.35
2018-03-03T17:27:09.096Z,4.85
2018-03-03T17:29:50.636Z,4.13
2018-03-03T17:32:29.880Z,4.27
2018-03-03T17:35:07.107Z,5.50
2018-03-03T17:37:45.866Z,4.60
2018-03-03T17:40:24.282Z,5.57
2018-03-03T17:43:03.836Z,5.17
2018-03-03T17:45:42.275Z,3.90
2018-03-03T17:48:20.720Z,3.37
2018-03-03T17:51:00.114Z,3.07
2018-03-03T17:53:38.718Z,4.50
2018-03-03T17:56:17.115Z,4.20
2018-03-03T17:58:56.666Z,3.20
2018-03-03T18:01:38.106Z,4.10
2018-03-03T18:04:17.509Z,4.03
2018-03-03T18:06:55.995Z,3.87
2018-03-03T18:09:36.473Z,4.93
2018-03-03T18:12:15.936Z,5.00
2018-03-03T18:14:55.309Z,4.80
2018-03-03T18:17:34.620Z,4.33
2018-03-03T18:20:12.990Z,5.57
2018-03-03T18:22:51.390Z,5.10
2018-03-03T18:25:29.818Z,6.40
2018-03-03T18:28:09.303Z,5.83
2018-03-03T18:30:47.709Z,5.83
2018-03-03T18:33:26.266Z,4.93
2018-03-03T18:36:04.815Z,6.10
2018-03-03T18:38:44.137Z,7.30
2018-03-03T18:41:24.206Z,6.80
2018-03-03T18:44:02.594Z,5.77
2018-03-03T18:46:43.814Z,8.50
2018-03-03T18:49:23.534Z,6.43
2018-03-03T18:52:04.931Z,5.90
2018-03-03T18:54:43.517Z,6.53
2018-03-03T18:57:21.990Z,6.77
2018-03-03T19:00:01.391Z,5.97
2018-03-03T19:02:40.749Z,5.33
2018-03-03T19:05:20.314Z,4.97
2018-03-03T19:08:01.083Z,6.20
2018-03-03T19:10:38.698Z,4.30
2018-03-03T19:13:17.132Z,5.93
2018-03-03T19:15:57.621Z,5.53
2018-03-03T19:18:38.222Z,7.00
2018-03-03T19:21:16.510Z,4.77
2018-03-03T19:23:54.932Z,4.53
2018-03-03T19:26:33.259Z,8.00
2018-03-03T19:29:11.882Z,5.87
2018-03-03T19:31:51.461Z,4.20
2018-03-03T19:34:29.915Z,3.70
2018-03-03T19:37:09.449Z,6.20
2018-03-03T19:39:47.875Z,2.50
2018-03-03T19:42:26.427Z,3.70
2018-03-03T19:45:04.827Z,3.53
2018-03-03T19:47:44.451Z,4.17
2018-03-03T19:50:23.061Z,3.50
2018-03-03T19:53:01.782Z,3.80
2018-03-03T19:55:41.050Z,3.93
2018-03-03T19:58:21.692Z,2.87
2018-03-03T20:01:02.021Z,3.10
2018-03-03T20:03:41.694Z,3.20
2018-03-03T20:06:22.081Z,5.73
2018-03-03T20:09:01.525Z,5.50
2018-03-03T20:11:40.083Z,4.30
2018-03-03T20:14:19.592Z,4.53
2018-03-03T20:16:58.668Z,2.67
2018-03-03T20:19:38.494Z,4.00
2018-03-03T20:22:16.855Z,3.63
2018-03-03T20:24:56.412Z,3.40
2018-03-03T20:27:35.885Z,3.27
2018-03-03T20:30:14.580Z,4.70
2018-03-03T20:32:52.990Z,2.93
2018-03-03T20:35:32.454Z,2.77
2018-03-03T20:38:09.802Z,3.93
2018-03-03T20:40:48.163Z,2.17
2018-03-03T20:43:27.567Z,3.07
2018-03-03T20:46:05.972Z,2.50
2018-03-03T20:48:45.373Z,3.13
2018-03-03T20:51:25.812Z,4.03
2018-03-03T20:54:04.156Z,4.00
2018-03-03T20:56:44.694Z,3.50
2018-03-03T20:59:23.160Z,3.60
2018-03-03T21:02:01.803Z,3.00
2018-03-03T21:04:40.254Z,2.93
2018-03-03T21:07:19.773Z,2.90
2018-03-03T21:09:58.303Z,5.27
2018-03-03T21:12:47.872Z,4.40
2018-03-03T21:15:29.449Z,2.87
2018-03-03T21:18:07.753Z,3.23
2018-03-03T21:20:45.324Z,2.87
2018-03-03T21:23:24.023Z,2.83
2018-03-03T21:26:05.631Z,3.13
2018-03-03T21:28:44.939Z,3.67
2018-03-03T21:31:23.434Z,3.50
2018-03-03T21:34:01.807Z,2.50
2018-03-03T21:36:41.162Z,2.90
2018-03-03T21:39:20.505Z,3.60
2018-03-03T21:41:58.940Z,2.43
2018-03-03T21:44:38.151Z,3.20
2018-03-03T21:47:17.036Z,9.20
2018-03-03T21:49:55.377Z,3.03
2018-03-03T21:52:34.367Z,5.37
2018-03-03T21:55:13.379Z,3.30
2018-03-03T21:57:51.790Z,3.30
2018-03-03T22:00:31.269Z,3.23
2018-03-03T22:03:10.971Z,2.60
2018-03-03T22:05:49.693Z,2.80
2018-03-03T22:08:27.926Z,3.43
2018-03-03T22:11:07.112Z,3.00
2018-03-03T22:13:46.001Z,2.20
2018-03-03T22:16:25.641Z,1.83
2018-03-03T22:19:03.799Z,2.40
2018-03-03T22:21:42.863Z,3.70
2018-03-03T22:24:22.440Z,2.30
2018-03-03T22:27:04.161Z,2.73
2018-03-03T22:29:42.579Z,2.40
2018-03-03T22:32:23.046Z,4.37
2018-03-03T22:35:01.620Z,3.33
2018-03-03T22:37:40.070Z,4.20
2018-03-03T22:40:19.622Z,2.23
2018-03-03T22:42:59.097Z,3.47
2018-03-03T22:45:37.548Z,2.07
2018-03-03T22:48:15.842Z,3.30
2018-03-03T22:50:56.328Z,2.40
2018-03-03T22:53:34.835Z,3.10
2018-03-03T22:56:14.866Z,2.53
2018-03-03T22:58:54.732Z,2.20
2018-03-03T23:01:33.168Z,2.40
2018-03-03T23:04:13.748Z,2.10
2018-03-03T23:06:52.436Z,1.70
2018-03-03T23:09:31.942Z,2.17
2018-03-03T23:12:13.556Z,2.57
2018-03-03T23:14:53.058Z,2.30
2018-03-03T23:17:34.695Z,2.53
2018-03-03T23:20:12.959Z,1.80
2018-03-03T23:22:51.553Z,4.90
2018-03-03T23:25:29.999Z,2.40
2018-03-03T23:28:16.776Z,4.60
2018-03-03T23:30:55.312Z,6.40
2018-03-03T23:33:33.835Z,2.60
2018-03-03T23:36:12.460Z,2.87
2018-03-03T23:38:52.020Z,8.03
2018-03-03T23:41:30.884Z,10.33
2018-03-03T23:44:09.531Z,14.70
2018-03-03T23:46:48.415Z,4.93
2018-03-03T23:49:26.823Z,3.77
2018-03-03T23:52:08.859Z,4.57
2018-03-03T23:54:48.809Z,5.20
2018-03-03T23:57:27.353Z,4.00
